sensor_id;sensor_type;location;lat;lon;timestamp;temperature;humidity
71039;SHT30;58692;43.212;27.908;2023-05-07T00:01:39;15.18;59.57
71039;SHT30;58692;43.212;27.908;2023-05-07T00:04:05;15.13;59.84
71039;SHT30;58692;43.212;27.908;2023-05-07T00:06:32;15.09;60.31
71039;SHT30;58692;43.212;27.908;2023-05-07T00:08:57;15.03;60.60
71039;SHT30;58692;43.212;27.908;2023-05-07T00:11:23;15.02;60.88
71039;SHT30;58692;43.212;27.908;2023-05-07T00:13:49;15.05;60.98
71039;SHT30;58692;43.212;27.908;2023-05-07T00:16:14;15.02;61.24
71039;SHT30;58692;43.212;27.908;2023-05-07T00:18:40;14.99;61.59
71039;SHT30;58692;43.212;27.908;2023-05-07T00:21:05;14.93;61.92
71039;SHT30;58692;43.212;27.908;2023-05-07T00:23:31;14.92;62.07
71039;SHT30;58692;43.212;27.908;2023-05-07T00:25:56;14.91;62.22
71039;SHT30;58692;43.212;27.908;2023-05-07T00:28:22;14.81;62.65
71039;SHT30;58692;43.212;27.908;2023-05-07T00:30:47;14.84;62.73
71039;SHT30;58692;43.212;27.908;2023-05-07T00:33:12;14.87;62.82
71039;SHT30;58692;43.212;27.908;2023-05-07T00:35:38;14.87;62.84
71039;SHT30;58692;43.212;27.908;2023-05-07T00:38:04;14.82;63.21
71039;SHT30;58692;43.212;27.908;2023-05-07T00:40:29;14.81;63.34
71039;SHT30;58692;43.212;27.908;2023-05-07T00:42:55;14.74;63.52
71039;SHT30;58692;43.212;27.908;2023-05-07T00:45:26;14.75;63.58
71039;SHT30;58692;43.212;27.908;2023-05-07T00:47:56;14.79;63.44
71039;SHT30;58692;43.212;27.908;2023-05-07T00:50:22;14.77;63.50
71039;SHT30;58692;43.212;27.908;2023-05-07T00:52:48;14.81;63.49
71039;SHT30;58692;43.212;27.908;2023-05-07T00:55:14;14.79;63.49
71039;SHT30;58692;43.212;27.908;2023-05-07T00:57:41;14.82;63.30
71039;SHT30;58692;43.212;27.908;2023-05-07T01:00:08;14.74;63.43
71039;SHT30;58692;43.212;27.908;2023-05-07T01:02:35;14.75;63.42
71039;SHT30;58692;43.212;27.908;2023-05-07T01:05:03;14.72;63.49
71039;SHT30;58692;43.212;27.908;2023-05-07T01:07:32;14.77;63.34
71039;SHT30;58692;43.212;27.908;2023-05-07T01:09:58;14.67;63.49
71039;SHT30;58692;43.212;27.908;2023-05-07T01:12:24;14.63;63.63
71039;SHT30;58692;43.212;27.908;2023-05-07T01:14:50;14.64;63.46
71039;SHT30;58692;43.212;27.908;2023-05-07T01:17:17;14.67;63.30
71039;SHT30;58692;43.212;27.908;2023-05-07T01:19:42;14.70;63.12
71039;SHT30;58692;43.212;27.908;2023-05-07T01:22:10;14.65;63.19
71039;SHT30;58692;43.212;27.908;2023-05-07T01:24:37;14.70;63.15
71039;SHT30;58692;43.212;27.908;2023-05-07T01:27:02;14.65;63.10
71039;SHT30;58692;43.212;27.908;2023-05-07T01:29:28;14.58;63.23
71039;SHT30;58692;43.212;27.908;2023-05-07T01:31:57;14.52;63.23
71039;SHT30;58692;43.212;27.908;2023-05-07T01:34:25;14.50;63.25
71039;SHT30;58692;43.212;27.908;2023-05-07T01:36:53;14.44;63.23
71039;SHT30;58692;43.212;27.908;2023-05-07T01:39:22;14.42;63.19
71039;SHT30;58692;43.212;27.908;2023-05-07T01:41:49;14.48;63.02
71039;SHT30;58692;43.212;27.908;2023-05-07T01:44:15;14.42;62.98
71039;SHT30;58692;43.212;27.908;2023-05-07T01:46:42;14.45;63.01
71039;SHT30;58692;43.212;27.908;2023-05-07T01:49:08;14.52;62.84
71039;SHT30;58692;43.212;27.908;2023-05-07T01:51:34;14.47;62.70
71039;SHT30;58692;43.212;27.908;2023-05-07T01:53:59;14.45;62.73
71039;SHT30;58692;43.212;27.908;2023-05-07T01:56:25;14.47;62.75
71039;SHT30;58692;43.212;27.908;2023-05-07T01:58:51;14.50;62.61
71039;SHT30;58692;43.212;27.908;2023-05-07T02:01:17;14.38;62.80
71039;SHT30;58692;43.212;27.908;2023-05-07T02:03:43;14.34;63.19
71039;SHT30;58692;43.212;27.908;2023-05-07T02:06:09;14.33;63.18
71039;SHT30;58692;43.212;27.908;2023-05-07T02:08:34;14.33;63.33
71039;SHT30;58692;43.212;27.908;2023-05-07T02:11:00;14.27;63.60
71039;SHT30;58692;43.212;27.908;2023-05-07T02:13:29;14.30;63.47
71039;SHT30;58692;43.212;27.908;2023-05-07T02:15:55;14.30;63.47
71039;SHT30;58692;43.212;27.908;2023-05-07T02:18:20;14.37;63.35
71039;SHT30;58692;43.212;27.908;2023-05-07T02:20:46;14.24;63.16
71039;SHT30;58692;43.212;27.908;2023-05-07T02:23:11;14.30;63.17
71039;SHT30;58692;43.212;27.908;2023-05-07T02:25:36;14.38;62.90
71039;SHT30;58692;43.212;27.908;2023-05-07T02:28:02;14.37;62.96
71039;SHT30;58692;43.212;27.908;2023-05-07T02:30:28;14.31;62.84
71039;SHT30;58692;43.212;27.908;2023-05-07T02:32:53;14.17;63.25
71039;SHT30;58692;43.212;27.908;2023-05-07T02:35:19;14.28;62.94
71039;SHT30;58692;43.212;27.908;2023-05-07T02:37:44;14.30;62.95
71039;SHT30;58692;43.212;27.908;2023-05-07T02:40:10;14.27;63.02
71039;SHT30;58692;43.212;27.908;2023-05-07T02:42:36;14.18;63.25
71039;SHT30;58692;43.212;27.908;2023-05-07T02:45:02;14.10;63.78
71039;SHT30;58692;43.212;27.908;2023-05-07T02:47:28;14.12;63.59
71039;SHT30;58692;43.212;27.908;2023-05-07T02:49:54;14.00;63.93
71039;SHT30;58692;43.212;27.908;2023-05-07T02:52:20;14.03;64.24
71039;SHT30;58692;43.212;27.908;2023-05-07T02:54:45;14.00;63.87
71039;SHT30;58692;43.212;27.908;2023-05-07T02:57:11;14.10;63.54
71039;SHT30;58692;43.212;27.908;2023-05-07T02:59:36;14.20;63.27
71039;SHT30;58692;43.212;27.908;2023-05-07T03:02:02;14.21;63.33
71039;SHT30;58692;43.212;27.908;2023-05-07T03:04:27;14.37;62.81
71039;SHT30;58692;43.212;27.908;2023-05-07T03:06:53;14.14;63.16
71039;SHT30;58692;43.212;27.908;2023-05-07T03:09:18;14.13;63.01
71039;SHT30;58692;43.212;27.908;2023-05-07T03:11:44;14.14;62.65
71039;SHT30;58692;43.212;27.908;2023-05-07T03:14:10;14.28;62.51
71039;SHT30;58692;43.212;27.908;2023-05-07T03:16:35;14.36;62.06
71039;SHT30;58692;43.212;27.908;2023-05-07T03:19:01;14.38;62.24
71039;SHT30;58692;43.212;27.908;2023-05-07T03:21:26;14.36;62.33
71039;SHT30;58692;43.212;27.908;2023-05-07T03:23:52;14.33;62.00
71039;SHT30;58692;43.212;27.908;2023-05-07T03:26:18;14.30;62.06
71039;SHT30;58692;43.212;27.908;2023-05-07T03:28:43;14.41;62.02
71039;SHT30;58692;43.212;27.908;2023-05-07T03:31:09;14.40;62.12
71039;SHT30;58692;43.212;27.908;2023-05-07T03:33:35;14.38;61.79
71039;SHT30;58692;43.212;27.908;2023-05-07T03:36:01;14.38;61.75
71039;SHT30;58692;43.212;27.908;2023-05-07T03:38:26;14.51;61.56
71039;SHT30;58692;43.212;27.908;2023-05-07T03:40:52;14.58;61.19
71039;SHT30;58692;43.212;27.908;2023-05-07T03:43:17;14.77;60.82
71039;SHT30;58692;43.212;27.908;2023-05-07T03:45:42;15.03;60.28
71039;SHT30;58692;43.212;27.908;2023-05-07T03:48:08;15.39;59.39
71039;SHT30;58692;43.212;27.908;2023-05-07T03:50:33;15.62;58.94
71039;SHT30;58692;43.212;27.908;2023-05-07T03:52:59;15.71;58.48
71039;SHT30;58692;43.212;27.908;2023-05-07T03:55:24;15.84;58.54
71039;SHT30;58692;43.212;27.908;2023-05-07T03:57:50;16.13;57.69
71039;SHT30;58692;43.212;27.908;2023-05-07T04:00:16;16.15;57.69
71039;SHT30;58692;43.212;27.908;2023-05-07T04:02:41;16.56;56.61
71039;SHT30;58692;43.212;27.908;2023-05-07T04:05:07;17.00;55.65
71039;SHT30;58692;43.212;27.908;2023-05-07T04:07:33;16.99;55.64
71039;SHT30;58692;43.212;27.908;2023-05-07T04:09:58;17.12;55.30
71039;SHT30;58692;43.212;27.908;2023-05-07T04:12:24;17.05;54.91
71039;SHT30;58692;43.212;27.908;2023-05-07T04:14:49;17.00;55.55
71039;SHT30;58692;43.212;27.908;2023-05-07T04:17:15;17.53;54.22
71039;SHT30;58692;43.212;27.908;2023-05-07T04:19:40;17.44;53.84
71039;SHT30;58692;43.212;27.908;2023-05-07T04:22:10;17.71;53.47
71039;SHT30;58692;43.212;27.908;2023-05-07T04:24:36;17.73;53.17
71039;SHT30;58692;43.212;27.908;2023-05-07T04:27:01;17.59;53.41
71039;SHT30;58692;43.212;27.908;2023-05-07T04:29:27;17.73;53.04
71039;SHT30;58692;43.212;27.908;2023-05-07T04:31:53;18.29;52.09
71039;SHT30;58692;43.212;27.908;2023-05-07T04:34:20;18.09;51.60
71039;SHT30;58692;43.212;27.908;2023-05-07T04:36:46;18.41;51.29
71039;SHT30;58692;43.212;27.908;2023-05-07T04:39:13;18.83;50.25
71039;SHT30;58692;43.212;27.908;2023-05-07T04:41:38;19.13;49.49
71039;SHT30;58692;43.212;27.908;2023-05-07T04:44:04;20.04;47.81
71039;SHT30;58692;43.212;27.908;2023-05-07T04:46:30;20.33;46.92
71039;SHT30;58692;43.212;27.908;2023-05-07T04:48:55;20.29;46.93
71039;SHT30;58692;43.212;27.908;2023-05-07T04:51:21;20.70;46.11
71039;SHT30;58692;43.212;27.908;2023-05-07T04:53:47;20.83;45.46
71039;SHT30;58692;43.212;27.908;2023-05-07T04:56:13;20.32;45.97
71039;SHT30;58692;43.212;27.908;2023-05-07T04:58:38;20.37;46.36
71039;SHT30;58692;43.212;27.908;2023-05-07T05:01:03;20.64;45.77
71039;SHT30;58692;43.212;27.908;2023-05-07T05:03:29;20.50;45.94
71039;SHT30;58692;43.212;27.908;2023-05-07T05:05:55;20.44;46.32
71039;SHT30;58692;43.212;27.908;2023-05-07T05:08:22;20.80;45.71
71039;SHT30;58692;43.212;27.908;2023-05-07T05:10:47;20.84;45.50
71039;SHT30;58692;43.212;27.908;2023-05-07T05:13:15;20.79;45.81
71039;SHT30;58692;43.212;27.908;2023-05-07T05:15:40;21.00;45.39
71039;SHT30;58692;43.212;27.908;2023-05-07T05:18:06;21.39;44.50
71039;SHT30;58692;43.212;27.908;2023-05-07T05:20:31;21.97;43.65
71039;SHT30;58692;43.212;27.908;2023-05-07T05:22:57;21.46;44.25
71039;SHT30;58692;43.212;27.908;2023-05-07T05:25:22;21.35;44.70
71039;SHT30;58692;43.212;27.908;2023-05-07T05:27:48;21.44;44.43
71039;SHT30;58692;43.212;27.908;2023-05-07T05:30:13;21.46;44.42
71039;SHT30;58692;43.212;27.908;2023-05-07T05:32:39;21.25;44.65
71039;SHT30;58692;43.212;27.908;2023-05-07T05:35:05;21.44;44.58
71039;SHT30;58692;43.212;27.908;2023-05-07T05:37:31;21.69;43.86
71039;SHT30;58692;43.212;27.908;2023-05-07T05:39:56;21.46;43.85
71039;SHT30;58692;43.212;27.908;2023-05-07T05:42:22;21.74;43.31
71039;SHT30;58692;43.212;27.908;2023-05-07T05:44:48;21.66;43.18
71039;SHT30;58692;43.212;27.908;2023-05-07T05:47:13;21.71;43.24
71039;SHT30;58692;43.212;27.908;2023-05-07T05:49:39;21.22;43.70
71039;SHT30;58692;43.212;27.908;2023-05-07T05:52:04;21.90;43.09
71039;SHT30;58692;43.212;27.908;2023-05-07T05:54:30;22.36;42.35
71039;SHT30;58692;43.212;27.908;2023-05-07T05:56:55;22.06;42.47
71039;SHT30;58692;43.212;27.908;2023-05-07T05:59:21;22.14;42.03
71039;SHT30;58692;43.212;27.908;2023-05-07T06:01:46;22.68;41.64
71039;SHT30;58692;43.212;27.908;2023-05-07T06:04:12;22.90;41.04
71039;SHT30;58692;43.212;27.908;2023-05-07T06:06:37;23.32;40.63
71039;SHT30;58692;43.212;27.908;2023-05-07T06:09:03;23.39;40.48
71039;SHT30;58692;43.212;27.908;2023-05-07T06:11:29;23.38;40.02
71039;SHT30;58692;43.212;27.908;2023-05-07T06:13:54;23.04;40.35
71039;SHT30;58692;43.212;27.908;2023-05-07T06:16:19;23.26;40.57
71039;SHT30;58692;43.212;27.908;2023-05-07T06:18:45;23.18;40.52
71039;SHT30;58692;43.212;27.908;2023-05-07T06:21:13;22.68;41.07
71039;SHT30;58692;43.212;27.908;2023-05-07T06:23:38;22.83;40.54
71039;SHT30;58692;43.212;27.908;2023-05-07T06:26:06;23.26;40.23
71039;SHT30;58692;43.212;27.908;2023-05-07T06:28:32;23.59;39.60
71039;SHT30;58692;43.212;27.908;2023-05-07T06:31:16;23.58;39.42
71039;SHT30;58692;43.212;27.908;2023-05-07T06:33:43;23.11;39.85
71039;SHT30;58692;43.212;27.908;2023-05-07T06:36:09;23.49;39.68
71039;SHT30;58692;43.212;27.908;2023-05-07T06:38:35;23.53;38.99
71039;SHT30;58692;43.212;27.908;2023-05-07T06:41:01;23.08;39.81
71039;SHT30;58692;43.212;27.908;2023-05-07T06:43:26;23.04;40.16
71039;SHT30;58692;43.212;27.908;2023-05-07T06:45:52;22.92;40.42
71039;SHT30;58692;43.212;27.908;2023-05-07T06:48:17;23.18;40.15
71039;SHT30;58692;43.212;27.908;2023-05-07T06:50:43;22.64;40.82
71039;SHT30;58692;43.212;27.908;2023-05-07T06:53:09;22.54;40.75
71039;SHT30;58692;43.212;27.908;2023-05-07T06:55:35;22.83;40.68
71039;SHT30;58692;43.212;27.908;2023-05-07T06:58:00;22.75;40.17
71039;SHT30;58692;43.212;27.908;2023-05-07T07:00:27;23.09;39.89
71039;SHT30;58692;43.212;27.908;2023-05-07T07:02:54;23.60;39.59
71039;SHT30;58692;43.212;27.908;2023-05-07T07:05:19;23.96;38.42
71039;SHT30;58692;43.212;27.908;2023-05-07T07:07:45;23.77;38.90
71039;SHT30;58692;43.212;27.908;2023-05-07T07:10:21;23.60;39.08
71039;SHT30;58692;43.212;27.908;2023-05-07T07:12:46;23.72;39.21
71039;SHT30;58692;43.212;27.908;2023-05-07T07:15:12;24.44;38.09
71039;SHT30;58692;43.212;27.908;2023-05-07T07:17:38;24.24;38.85
71039;SHT30;58692;43.212;27.908;2023-05-07T07:20:04;24.04;38.30
71039;SHT30;58692;43.212;27.908;2023-05-07T07:22:29;24.34;38.16
71039;SHT30;58692;43.212;27.908;2023-05-07T07:24:55;24.67;37.77
71039;SHT30;58692;43.212;27.908;2023-05-07T07:27:20;25.04;37.05
71039;SHT30;58692;43.212;27.908;2023-05-07T07:29:46;25.16;36.57
71039;SHT30;58692;43.212;27.908;2023-05-07T07:32:11;25.06;36.24
71039;SHT30;58692;43.212;27.908;2023-05-07T07:34:37;25.54;35.82
71039;SHT30;58692;43.212;27.908;2023-05-07T07:37:02;25.46;36.15
71039;SHT30;58692;43.212;27.908;2023-05-07T07:39:31;25.26;36.09
71039;SHT30;58692;43.212;27.908;2023-05-07T07:41:57;25.76;35.67
71039;SHT30;58692;43.212;27.908;2023-05-07T07:44:22;25.47;35.04
71039;SHT30;58692;43.212;27.908;2023-05-07T07:46:48;25.91;35.07
71039;SHT30;58692;43.212;27.908;2023-05-07T07:49:14;25.81;34.79
71039;SHT30;58692;43.212;27.908;2023-05-07T07:51:40;25.25;35.05
71039;SHT30;58692;43.212;27.908;2023-05-07T07:54:06;25.94;34.52
71039;SHT30;58692;43.212;27.908;2023-05-07T07:56:32;25.63;34.90
71039;SHT30;58692;43.212;27.908;2023-05-07T07:59:01;25.84;33.72
71039;SHT30;58692;43.212;27.908;2023-05-07T08:01:26;26.02;32.46
71039;SHT30;58692;43.212;27.908;2023-05-07T08:03:52;26.18;32.54
71039;SHT30;58692;43.212;27.908;2023-05-07T08:06:18;26.38;32.36
71039;SHT30;58692;43.212;27.908;2023-05-07T08:08:44;25.96;32.37
71039;SHT30;58692;43.212;27.908;2023-05-07T08:11:09;25.51;33.17
71039;SHT30;58692;43.212;27.908;2023-05-07T08:13:36;25.56;33.09
71039;SHT30;58692;43.212;27.908;2023-05-07T08:16:01;25.36;32.88
71039;SHT30;58692;43.212;27.908;2023-05-07T08:18:27;25.22;38.50
71039;SHT30;58692;43.212;27.908;2023-05-07T08:20:54;25.49;39.67
71039;SHT30;58692;43.212;27.908;2023-05-07T08:23:20;25.59;40.48
71039;SHT30;58692;43.212;27.908;2023-05-07T08:25:46;24.92;41.60
71039;SHT30;58692;43.212;27.908;2023-05-07T08:28:11;24.64;41.83
71039;SHT30;58692;43.212;27.908;2023-05-07T08:30:37;25.30;40.23
71039;SHT30;58692;43.212;27.908;2023-05-07T08:33:03;24.99;41.93
71039;SHT30;58692;43.212;27.908;2023-05-07T08:35:28;24.48;43.00
71039;SHT30;58692;43.212;27.908;2023-05-07T08:37:54;23.83;42.84
71039;SHT30;58692;43.212;27.908;2023-05-07T08:40:22;23.79;43.61
71039;SHT30;58692;43.212;27.908;2023-05-07T08:42:52;22.81;45.47
71039;SHT30;58692;43.212;27.908;2023-05-07T08:45:19;23.86;43.47
71039;SHT30;58692;43.212;27.908;2023-05-07T08:47:47;24.06;42.85
71039;SHT30;58692;43.212;27.908;2023-05-07T08:50:15;23.82;43.52
71039;SHT30;58692;43.212;27.908;2023-05-07T08:52:42;23.19;44.37
71039;SHT30;58692;43.212;27.908;2023-05-07T08:55:08;23.93;43.99
71039;SHT30;58692;43.212;27.908;2023-05-07T08:57:34;23.84;43.98
71039;SHT30;58692;43.212;27.908;2023-05-07T09:00:01;23.74;44.28
71039;SHT30;58692;43.212;27.908;2023-05-07T09:02:26;24.40;43.87
71039;SHT30;58692;43.212;27.908;2023-05-07T09:04:52;24.53;42.08
71039;SHT30;58692;43.212;27.908;2023-05-07T09:07:19;23.96;42.56
71039;SHT30;58692;43.212;27.908;2023-05-07T09:09:45;24.60;41.24
71039;SHT30;58692;43.212;27.908;2023-05-07T09:12:11;24.02;42.31
71039;SHT30;58692;43.212;27.908;2023-05-07T09:14:38;24.25;42.39
71039;SHT30;58692;43.212;27.908;2023-05-07T09:17:04;23.46;43.22
71039;SHT30;58692;43.212;27.908;2023-05-07T09:19:30;23.55;42.50
71039;SHT30;58692;43.212;27.908;2023-05-07T09:22:04;23.83;42.53
71039;SHT30;58692;43.212;27.908;2023-05-07T09:24:30;23.37;41.74
71039;SHT30;58692;43.212;27.908;2023-05-07T09:27:01;23.53;42.19
71039;SHT30;58692;43.212;27.908;2023-05-07T09:29:27;23.50;43.06
71039;SHT30;58692;43.212;27.908;2023-05-07T09:31:56;23.55;43.08
71039;SHT30;58692;43.212;27.908;2023-05-07T09:34:21;23.42;44.64
71039;SHT30;58692;43.212;27.908;2023-05-07T09:36:47;23.76;43.86
71039;SHT30;58692;43.212;27.908;2023-05-07T09:39:13;23.99;44.94
71039;SHT30;58692;43.212;27.908;2023-05-07T09:41:47;23.84;45.25
71039;SHT30;58692;43.212;27.908;2023-05-07T09:44:14;23.77;44.31
71039;SHT30;58692;43.212;27.908;2023-05-07T09:46:42;22.83;44.36
71039;SHT30;58692;43.212;27.908;2023-05-07T09:49:18;23.39;46.40
71039;SHT30;58692;43.212;27.908;2023-05-07T09:51:49;23.43;47.07
71039;SHT30;58692;43.212;27.908;2023-05-07T09:54:15;22.90;47.27
71039;SHT30;58692;43.212;27.908;2023-05-07T09:56:43;22.98;48.21
71039;SHT30;58692;43.212;27.908;2023-05-07T09:59:12;22.61;51.01
71039;SHT30;58692;43.212;27.908;2023-05-07T10:01:38;23.60;48.55
71039;SHT30;58692;43.212;27.908;2023-05-07T10:04:06;23.29;50.60
71039;SHT30;58692;43.212;27.908;2023-05-07T10:06:34;22.27;50.12
71039;SHT30;58692;43.212;27.908;2023-05-07T10:09:00;22.60;50.98
71039;SHT30;58692;43.212;27.908;2023-05-07T10:11:26;23.18;51.03
71039;SHT30;58692;43.212;27.908;2023-05-07T10:13:53;22.80;52.41
71039;SHT30;58692;43.212;27.908;2023-05-07T10:16:19;22.71;52.20
71039;SHT30;58692;43.212;27.908;2023-05-07T10:18:46;22.37;53.92
71039;SHT30;58692;43.212;27.908;2023-05-07T10:21:17;23.45;52.84
71039;SHT30;58692;43.212;27.908;2023-05-07T10:23:57;23.80;52.77
71039;SHT30;58692;43.212;27.908;2023-05-07T10:26:24;23.92;52.86
71039;SHT30;58692;43.212;27.908;2023-05-07T10:28:55;23.53;53.13
71039;SHT30;58692;43.212;27.908;2023-05-07T10:34:09;22.51;55.73
71039;SHT30;58692;43.212;27.908;2023-05-07T10:36:36;22.24;56.67
71039;SHT30;58692;43.212;27.908;2023-05-07T10:39:02;22.20;56.48
71039;SHT30;58692;43.212;27.908;2023-05-07T10:41:28;21.65;58.03
71039;SHT30;58692;43.212;27.908;2023-05-07T10:43:53;21.54;58.30
71039;SHT30;58692;43.212;27.908;2023-05-07T10:46:20;21.58;57.74
71039;SHT30;58692;43.212;27.908;2023-05-07T10:51:32;21.17;58.91
71039;SHT30;58692;43.212;27.908;2023-05-07T10:56:41;21.44;57.53
71039;SHT30;58692;43.212;27.908;2023-05-07T10:59:31;21.96;55.48
71039;SHT30;58692;43.212;27.908;2023-05-07T11:01:59;21.95;55.09
71039;SHT30;58692;43.212;27.908;2023-05-07T11:04:27;21.93;55.75
71039;SHT30;58692;43.212;27.908;2023-05-07T11:09:54;21.95;54.33
71039;SHT30;58692;43.212;27.908;2023-05-07T11:15:04;21.76;55.17
71039;SHT30;58692;43.212;27.908;2023-05-07T11:17:30;22.27;54.81
71039;SHT30;58692;43.212;27.908;2023-05-07T11:19:57;21.32;58.02
71039;SHT30;58692;43.212;27.908;2023-05-07T11:22:38;22.57;55.03
71039;SHT30;58692;43.212;27.908;2023-05-07T11:25:06;22.18;55.86
71039;SHT30;58692;43.212;27.908;2023-05-07T11:27:32;22.43;55.51
71039;SHT30;58692;43.212;27.908;2023-05-07T11:29:57;21.52;56.75
71039;SHT30;58692;43.212;27.908;2023-05-07T11:32:26;21.65;57.23
71039;SHT30;58692;43.212;27.908;2023-05-07T11:34:53;21.30;59.27
71039;SHT30;58692;43.212;27.908;2023-05-07T11:37:19;21.76;58.77
71039;SHT30;58692;43.212;27.908;2023-05-07T11:39:45;21.52;59.15
71039;SHT30;58692;43.212;27.908;2023-05-07T11:42:28;20.61;61.20
71039;SHT30;58692;43.212;27.908;2023-05-07T11:44:54;21.27;58.08
71039;SHT30;58692;43.212;27.908;2023-05-07T11:47:20;21.48;58.07
71039;SHT30;58692;43.212;27.908;2023-05-07T11:49:48;20.84;59.10
71039;SHT30;58692;43.212;27.908;2023-05-07T11:52:15;20.26;57.64
71039;SHT30;58692;43.212;27.908;2023-05-07T11:54:40;20.08;59.75
71039;SHT30;58692;43.212;27.908;2023-05-07T11:57:06;19.81;60.45
71039;SHT30;58692;43.212;27.908;2023-05-07T11:59:40;20.20;59.05
71039;SHT30;58692;43.212;27.908;2023-05-07T12:02:06;19.85;58.97
71039;SHT30;58692;43.212;27.908;2023-05-07T12:04:32;20.44;57.31
71039;SHT30;58692;43.212;27.908;2023-05-07T12:06:57;20.61;57.49
71039;SHT30;58692;43.212;27.908;2023-05-07T12:09:23;19.71;59.50
71039;SHT30;58692;43.212;27.908;2023-05-07T12:11:49;19.48;60.23
71039;SHT30;58692;43.212;27.908;2023-05-07T12:14:14;18.97;60.53
71039;SHT30;58692;43.212;27.908;2023-05-07T12:16:41;18.62;61.36
71039;SHT30;58692;43.212;27.908;2023-05-07T12:19:08;18.39;62.18
71039;SHT30;58692;43.212;27.908;2023-05-07T12:21:38;18.77;62.34
71039;SHT30;58692;43.212;27.908;2023-05-07T12:24:05;18.52;61.60
71039;SHT30;58692;43.212;27.908;2023-05-07T12:26:30;17.92;64.55
71039;SHT30;58692;43.212;27.908;2023-05-07T12:28:57;17.82;63.99
71039;SHT30;58692;43.212;27.908;2023-05-07T12:31:25;18.11;63.76
71039;SHT30;58692;43.212;27.908;2023-05-07T12:33:51;17.94;64.27
71039;SHT30;58692;43.212;27.908;2023-05-07T12:36:16;17.90;64.28
71039;SHT30;58692;43.212;27.908;2023-05-07T12:38:42;17.87;64.04
71039;SHT30;58692;43.212;27.908;2023-05-07T12:41:09;17.80;60.21
71039;SHT30;58692;43.212;27.908;2023-05-07T12:43:36;17.82;62.39
71039;SHT30;58692;43.212;27.908;2023-05-07T12:46:04;18.01;62.92
71039;SHT30;58692;43.212;27.908;2023-05-07T12:48:31;18.11;62.09
71039;SHT30;58692;43.212;27.908;2023-05-07T12:50:58;18.01;61.50
71039;SHT30;58692;43.212;27.908;2023-05-07T12:53:25;17.85;63.41
71039;SHT30;58692;43.212;27.908;2023-05-07T12:55:54;17.80;60.44
71039;SHT30;58692;43.212;27.908;2023-05-07T12:58:26;17.84;60.07
71039;SHT30;58692;43.212;27.908;2023-05-07T13:00:53;17.66;62.25
71039;SHT30;58692;43.212;27.908;2023-05-07T13:03:29;17.59;62.38
71039;SHT30;58692;43.212;27.908;2023-05-07T13:05:56;17.53;61.47
71039;SHT30;58692;43.212;27.908;2023-05-07T13:08:25;17.67;60.87
71039;SHT30;58692;43.212;27.908;2023-05-07T13:10:51;17.40;62.20
71039;SHT30;58692;43.212;27.908;2023-05-07T13:13:18;17.09;64.06
71039;SHT30;58692;43.212;27.908;2023-05-07T13:15:44;17.16;63.82
71039;SHT30;58692;43.212;27.908;2023-05-07T13:18:09;17.17;63.67
71039;SHT30;58692;43.212;27.908;2023-05-07T13:20:36;16.85;63.19
71039;SHT30;58692;43.212;27.908;2023-05-07T13:23:01;16.79;64.36
71039;SHT30;58692;43.212;27.908;2023-05-07T13:25:29;16.98;65.13
71039;SHT30;58692;43.212;27.908;2023-05-07T13:27:56;17.13;63.71
71039;SHT30;58692;43.212;27.908;2023-05-07T13:30:21;17.36;62.67
71039;SHT30;58692;43.212;27.908;2023-05-07T13:32:47;17.57;61.78
71039;SHT30;58692;43.212;27.908;2023-05-07T13:35:13;17.17;62.44
71039;SHT30;58692;43.212;27.908;2023-05-07T13:37:38;17.27;63.29
71039;SHT30;58692;43.212;27.908;2023-05-07T13:40:04;17.39;63.21
71039;SHT30;58692;43.212;27.908;2023-05-07T13:42:30;17.19;64.39
71039;SHT30;58692;43.212;27.908;2023-05-07T13:44:56;17.26;62.33
71039;SHT30;58692;43.212;27.908;2023-05-07T13:47:22;17.20;65.18
71039;SHT30;58692;43.212;27.908;2023-05-07T13:49:48;17.50;63.74
71039;SHT30;58692;43.212;27.908;2023-05-07T13:52:16;17.51;63.75
71039;SHT30;58692;43.212;27.908;2023-05-07T13:54:41;17.16;63.11
71039;SHT30;58692;43.212;27.908;2023-05-07T13:57:07;17.05;65.46
71039;SHT30;58692;43.212;27.908;2023-05-07T13:59:33;16.89;66.15
71039;SHT30;58692;43.212;27.908;2023-05-07T14:01:59;16.85;65.79
71039;SHT30;58692;43.212;27.908;2023-05-07T14:04:24;16.80;66.42
71039;SHT30;58692;43.212;27.908;2023-05-07T14:06:49;16.71;66.07
71039;SHT30;58692;43.212;27.908;2023-05-07T14:09:15;16.86;66.74
71039;SHT30;58692;43.212;27.908;2023-05-07T14:11:41;17.07;64.73
71039;SHT30;58692;43.212;27.908;2023-05-07T14:14:06;16.86;64.25
71039;SHT30;58692;43.212;27.908;2023-05-07T14:16:32;16.86;65.42
71039;SHT30;58692;43.212;27.908;2023-05-07T14:18:57;16.75;63.77
71039;SHT30;58692;43.212;27.908;2023-05-07T14:21:22;16.49;63.51
71039;SHT30;58692;43.212;27.908;2023-05-07T14:23:48;16.82;64.41
71039;SHT30;58692;43.212;27.908;2023-05-07T14:26:13;16.73;63.90
71039;SHT30;58692;43.212;27.908;2023-05-07T14:28:39;16.79;65.59
71039;SHT30;58692;43.212;27.908;2023-05-07T14:31:07;16.61;65.89
71039;SHT30;58692;43.212;27.908;2023-05-07T14:33:33;16.71;65.87
71039;SHT30;58692;43.212;27.908;2023-05-07T14:35:59;16.72;64.95
71039;SHT30;58692;43.212;27.908;2023-05-07T14:38:24;16.52;64.82
71039;SHT30;58692;43.212;27.908;2023-05-07T14:40:50;16.75;63.33
71039;SHT30;58692;43.212;27.908;2023-05-07T14:43:15;16.76;62.95
71039;SHT30;58692;43.212;27.908;2023-05-07T14:45:41;16.76;63.10
71039;SHT30;58692;43.212;27.908;2023-05-07T14:48:06;16.80;63.27
71039;SHT30;58692;43.212;27.908;2023-05-07T14:50:32;16.73;63.29
71039;SHT30;58692;43.212;27.908;2023-05-07T14:52:57;16.64;62.74
71039;SHT30;58692;43.212;27.908;2023-05-07T14:55:23;16.56;62.40
71039;SHT30;58692;43.212;27.908;2023-05-07T14:57:48;16.69;63.41
71039;SHT30;58692;43.212;27.908;2023-05-07T15:00:14;16.69;62.90
71039;SHT30;58692;43.212;27.908;2023-05-07T15:02:39;16.52;63.76
71039;SHT30;58692;43.212;27.908;2023-05-07T15:05:05;16.64;64.09
71039;SHT30;58692;43.212;27.908;2023-05-07T15:07:31;16.83;63.61
71039;SHT30;58692;43.212;27.908;2023-05-07T15:09:59;16.72;63.88
71039;SHT30;58692;43.212;27.908;2023-05-07T15:12:24;16.79;64.11
71039;SHT30;58692;43.212;27.908;2023-05-07T15:14:50;16.96;64.25
71039;SHT30;58692;43.212;27.908;2023-05-07T15:17:15;17.00;64.56
71039;SHT30;58692;43.212;27.908;2023-05-07T15:19:41;16.96;65.05
71039;SHT30;58692;43.212;27.908;2023-05-07T15:22:06;16.76;65.85
71039;SHT30;58692;43.212;27.908;2023-05-07T15:24:32;16.45;66.82